sensor_id;sensor_type;location;lat;lon;timestamp;pressure;altitude;pressure_sealevel;temperature;humidity
45369;BME280;51342;55.250;37.668;2023-02-28T00:03:39;100181.34;;;-7.69;70.24
45369;BME280;51342;55.250;37.668;2023-02-28T00:06:10;100180.84;;;-7.66;70.17
45369;BME280;51342;55.250;37.668;2023-02-28T00:08:42;100179.53;;;-7.70;70.08
45369;BME280;51342;55.250;37.668;2023-02-28T00:11:14;100184.56;;;-7.70;70.23
45369;BME280;51342;55.250;37.668;2023-02-28T00:13:46;100169.78;;;-7.74;70.25
45369;BME280;51342;55.250;37.668;2023-02-28T00:16:21;100165.19;;;-7.71;70.24
45369;BME280;51342;55.250;37.668;2023-02-28T00:18:52;100163.78;;;-7.69;70.31
45369;BME280;51342;55.250;37.668;2023-02-28T00:21:23;100160.34;;;-7.69;70.34
45369;BME280;51342;55.250;37.668;2023-02-28T00:23:55;100154.44;;;-7.70;70.18
45369;BME280;51342;55.250;37.668;2023-02-28T00:26:26;100158.81;;;-7.75;70.29
45369;BME280;51342;55.250;37.668;2023-02-28T00:28:58;100160.25;;;-7.77;70.36
45369;BME280;51342;55.250;37.668;2023-02-28T00:31:29;100154.28;;;-7.77;70.48
45369;BME280;51342;55.250;37.668;2023-02-28T00:34:01;100146.97;;;-7.76;70.42
45369;BME280;51342;55.250;37.668;2023-02-28T00:36:32;100141.53;;;-7.79;70.30
45369;BME280;51342;55.250;37.668;2023-02-28T00:39:03;100134.06;;;-7.84;70.44
45369;BME280;51342;55.250;37.668;2023-02-28T00:41:35;100145.91;;;-7.83;70.63
45369;BME280;51342;55.250;37.668;2023-02-28T00:44:06;100133.38;;;-7.83;70.52
45369;BME280;51342;55.250;37.668;2023-02-28T00:46:38;100133.59;;;-7.82;70.55
45369;BME280;51342;55.250;37.668;2023-02-28T00:49:09;100126.97;;;-7.81;70.53
45369;BME280;51342;55.250;37.668;2023-02-28T00:51:40;100131.97;;;-7.81;70.59
45369;BME280;51342;55.250;37.668;2023-02-28T00:54:12;100125.16;;;-7.82;70.57
45369;BME280;51342;55.250;37.668;2023-02-28T00:56:43;100114.22;;;-7.83;70.45
45369;BME280;51342;55.250;37.668;2023-02-28T00:59:17;100126.75;;;-7.83;70.61
45369;BME280;51342;55.250;37.668;2023-02-28T01:01:49;100122.50;;;-7.89;70.75
45369;BME280;51342;55.250;37.668;2023-02-28T01:04:21;100119.31;;;-7.88;70.55
45369;BME280;51342;55.250;37.668;2023-02-28T01:06:52;100107.44;;;-7.89;70.59
45369;BME280;51342;55.250;37.668;2023-02-28T01:09:24;100113.78;;;-7.86;70.61
45369;BME280;51342;55.250;37.668;2023-02-28T01:11:55;100108.13;;;-7.90;70.62
45369;BME280;51342;55.250;37.668;2023-02-28T01:14:27;100113.59;;;-7.87;70.67
45369;BME280;51342;55.250;37.668;2023-02-28T01:16:58;100094.88;;;-7.89;70.78
45369;BME280;51342;55.250;37.668;2023-02-28T01:19:30;100099.91;;;-7.89;70.74
45369;BME280;51342;55.250;37.668;2023-02-28T01:22:03;100096.47;;;-7.90;70.85
45369;BME280;51342;55.250;37.668;2023-02-28T01:24:34;100096.72;;;-7.88;70.89
45369;BME280;51342;55.250;37.668;2023-02-28T01:27:06;100098.53;;;-7.87;70.75
45369;BME280;51342;55.250;37.668;2023-02-28T01:29:37;100097.38;;;-7.89;70.87
45369;BME280;51342;55.250;37.668;2023-02-28T01:32:09;100094.19;;;-7.88;71.05
45369;BME280;51342;55.250;37.668;2023-02-28T01:34:40;100095.31;;;-7.86;70.89
45369;BME280;51342;55.250;37.668;2023-02-28T01:37:12;100093.88;;;-7.84;70.90
45369;BME280;51342;55.250;37.668;2023-02-28T01:39:43;100085.88;;;-7.82;70.92
45369;BME280;51342;55.250;37.668;2023-02-28T01:42:14;100088.06;;;-7.78;70.91
45369;BME280;51342;55.250;37.668;2023-02-28T01:45:04;100082.47;;;-7.82;70.79
45369;BME280;51342;55.250;37.668;2023-02-28T01:47:41;100081.75;;;-7.81;70.79
45369;BME280;51342;55.250;37.668;2023-02-28T01:50:17;100089.50;;;-7.80;70.94
45369;BME280;51342;55.250;37.668;2023-02-28T01:52:50;100083.06;;;-7.78;70.96
45369;BME280;51342;55.250;37.668;2023-02-28T01:55:22;100072.19;;;-7.84;71.00
45369;BME280;51342;55.250;37.668;2023-02-28T01:57:56;100077.34;;;-7.77;71.23
45369;BME280;51342;55.250;37.668;2023-02-28T02:00:30;100076.94;;;-7.80;71.08
45369;BME280;51342;55.250;37.668;2023-02-28T02:03:08;100079.63;;;-7.78;71.14
45369;BME280;51342;55.250;37.668;2023-02-28T02:05:42;100070.28;;;-7.79;71.18
45369;BME280;51342;55.250;37.668;2023-02-28T02:08:22;100071.19;;;-7.79;71.06
45369;BME280;51342;55.250;37.668;2023-02-28T02:10:56;100069.59;;;-7.78;71.14
45369;BME280;51342;55.250;37.668;2023-02-28T02:17:07;100050.09;;;-7.86;71.45
45369;BME280;51342;55.250;37.668;2023-02-28T02:35:27;100017.63;;;-7.97;71.31
45369;BME280;51342;55.250;37.668;2023-02-28T02:38:27;100012.91;;;-8.02;71.30
45369;BME280;51342;55.250;37.668;2023-02-28T02:46:45;99986.28;;;-8.07;71.41
45369;BME280;51342;55.250;37.668;2023-02-28T02:49:24;99998.97;;;-7.99;71.48
45369;BME280;51342;55.250;37.668;2023-02-28T02:52:01;99986.19;;;-8.01;71.27
45369;BME280;51342;55.250;37.668;2023-02-28T02:54:37;99984.81;;;-7.99;71.48
45369;BME280;51342;55.250;37.668;2023-02-28T02:57:18;99977.84;;;-8.07;71.44
45369;BME280;51342;55.250;37.668;2023-02-28T02:59:54;99978.25;;;-8.04;71.49
45369;BME280;51342;55.250;37.668;2023-02-28T03:02:27;99969.81;;;-8.05;71.66
45369;BME280;51342;55.250;37.668;2023-02-28T03:05:11;99970.72;;;-8.04;71.66
45369;BME280;51342;55.250;37.668;2023-02-28T03:07:45;99960.47;;;-8.06;71.58
45369;BME280;51342;55.250;37.668;2023-02-28T03:10:33;99961.69;;;-8.09;71.50
45369;BME280;51342;55.250;37.668;2023-02-28T03:16:47;99950.03;;;-8.21;71.61
45369;BME280;51342;55.250;37.668;2023-02-28T03:25:12;99945.59;;;-8.17;71.75
45369;BME280;51342;55.250;37.668;2023-02-28T03:28:08;99935.53;;;-8.17;71.76
45369;BME280;51342;55.250;37.668;2023-02-28T03:30:51;99928.72;;;-8.18;71.93
45369;BME280;51342;55.250;37.668;2023-02-28T03:33:39;99922.19;;;-8.23;71.65
45369;BME280;51342;55.250;37.668;2023-02-28T03:36:18;99918.50;;;-8.19;71.65
45369;BME280;51342;55.250;37.668;2023-02-28T03:39:03;99910.97;;;-8.19;71.70
45369;BME280;51342;55.250;37.668;2023-02-28T03:41:46;99902.53;;;-8.20;71.71
45369;BME280;51342;55.250;37.668;2023-02-28T03:44:55;99909.34;;;-8.19;71.85
45369;BME280;51342;55.250;37.668;2023-02-28T03:47:54;99906.94;;;-8.24;71.65
45369;BME280;51342;55.250;37.668;2023-02-28T03:50:36;99897.81;;;-8.24;71.80
45369;BME280;51342;55.250;37.668;2023-02-28T03:53:18;99898.22;;;-8.21;71.75
45369;BME280;51342;55.250;37.668;2023-02-28T03:55:55;99888.47;;;-8.25;71.81
45369;BME280;51342;55.250;37.668;2023-02-28T03:58:47;99884.63;;;-8.29;71.83
45369;BME280;51342;55.250;37.668;2023-02-28T04:03:54;99881.94;;;-8.30;71.94
45369;BME280;51342;55.250;37.668;2023-02-28T04:06:26;99883.25;;;-8.27;71.93
45369;BME280;51342;55.250;37.668;2023-02-28T04:08:58;99865.69;;;-8.27;72.01
45369;BME280;51342;55.250;37.668;2023-02-28T04:11:37;99859.78;;;-8.27;71.93
45369;BME280;51342;55.250;37.668;2023-02-28T04:14:10;99863.66;;;-8.29;71.90
45369;BME280;51342;55.250;37.668;2023-02-28T04:16:42;99859.53;;;-8.29;72.00
45369;BME280;51342;55.250;37.668;2023-02-28T04:19:14;99853.44;;;-8.31;72.00
45369;BME280;51342;55.250;37.668;2023-02-28T04:21:48;99859.88;;;-8.33;71.97
45369;BME280;51342;55.250;37.668;2023-02-28T04:24:22;99846.59;;;-8.32;71.97
45369;BME280;51342;55.250;37.668;2023-02-28T04:26:57;99851.44;;;-8.33;72.15
45369;BME280;51342;55.250;37.668;2023-02-28T04:29:30;99847.50;;;-8.31;71.99
45369;BME280;51342;55.250;37.668;2023-02-28T04:32:03;99842.50;;;-8.31;71.99
45369;BME280;51342;55.250;37.668;2023-02-28T04:34:35;99835.88;;;-8.31;72.17
45369;BME280;51342;55.250;37.668;2023-02-28T04:37:06;99831.03;;;-8.29;72.13
45369;BME280;51342;55.250;37.668;2023-02-28T04:39:39;99825.13;;;-8.30;71.95
45369;BME280;51342;55.250;37.668;2023-02-28T04:42:11;99816.88;;;-8.29;72.18
45369;BME280;51342;55.250;37.668;2023-02-28T04:44:43;99806.47;;;-8.32;71.79
45369;BME280;51342;55.250;37.668;2023-02-28T04:47:14;99809.34;;;-8.29;72.19
45369;BME280;51342;55.250;37.668;2023-02-28T04:49:45;99805.28;;;-8.28;71.92
45369;BME280;51342;55.250;37.668;2023-02-28T04:52:17;99804.22;;;-8.23;72.03
45369;BME280;51342;55.250;37.668;2023-02-28T04:54:48;99799.72;;;-8.25;71.94
45369;BME280;51342;55.250;37.668;2023-02-28T04:57:20;99806.97;;;-8.21;72.12
45369;BME280;51342;55.250;37.668;2023-02-28T04:59:51;99799.63;;;-8.20;72.01
45369;BME280;51342;55.250;37.668;2023-02-28T05:02:23;99809.56;;;-8.14;72.02
45369;BME280;51342;55.250;37.668;2023-02-28T05:04:54;99804.03;;;-8.12;71.90
45369;BME280;51342;55.250;37.668;2023-02-28T05:07:26;99800.84;;;-8.11;71.80
45369;BME280;51342;55.250;37.668;2023-02-28T05:09:57;99789.88;;;-8.11;71.77
45369;BME280;51342;55.250;37.668;2023-02-28T05:12:28;99800.94;;;-8.04;71.84
45369;BME280;51342;55.250;37.668;2023-02-28T05:15:00;99795.19;;;-8.03;71.80
45369;BME280;51342;55.250;37.668;2023-02-28T05:17:33;99796.69;;;-7.97;71.67
45369;BME280;51342;55.250;37.668;2023-02-28T05:20:04;99790.47;;;-7.94;72.10
45369;BME280;51342;55.250;37.668;2023-02-28T05:22:37;99781.22;;;-7.88;71.98
45369;BME280;51342;55.250;37.668;2023-02-28T05:25:20;99775.50;;;-7.87;71.59
45369;BME280;51342;55.250;37.668;2023-02-28T05:27:53;99768.94;;;-7.79;71.52
45369;BME280;51342;55.250;37.668;2023-02-28T05:30:24;99753.38;;;-7.77;71.48
45369;BME280;51342;55.250;37.668;2023-02-28T05:32:56;99749.13;;;-7.70;71.46
45369;BME280;51342;55.250;37.668;2023-02-28T05:35:27;99753.00;;;-7.60;71.56
45369;BME280;51342;55.250;37.668;2023-02-28T05:37:59;99762.81;;;-7.49;71.23
45369;BME280;51342;55.250;37.668;2023-02-28T05:40:30;99751.72;;;-7.43;71.24
45369;BME280;51342;55.250;37.668;2023-02-28T05:43:01;99737.22;;;-7.39;71.14
45369;BME280;51342;55.250;37.668;2023-02-28T05:45:33;99728.53;;;-7.28;71.14
45369;BME280;51342;55.250;37.668;2023-02-28T05:48:05;99728.25;;;-7.17;70.91
45369;BME280;51342;55.250;37.668;2023-02-28T05:50:36;99723.88;;;-7.05;70.77
45369;BME280;51342;55.250;37.668;2023-02-28T05:53:08;99717.28;;;-6.98;70.59
45369;BME280;51342;55.250;37.668;2023-02-28T05:55:39;99705.84;;;-6.88;70.60
45369;BME280;51342;55.250;37.668;2023-02-28T05:58:12;99699.94;;;-6.82;70.51
45369;BME280;51342;55.250;37.668;2023-02-28T06:00:43;99694.78;;;-6.76;70.32
45369;BME280;51342;55.250;37.668;2023-02-28T06:03:15;99685.13;;;-6.66;70.31
45369;BME280;51342;55.250;37.668;2023-02-28T06:05:46;99675.47;;;-6.63;70.16
45369;BME280;51342;55.250;37.668;2023-02-28T06:08:18;99674.06;;;-6.54;70.12
45369;BME280;51342;55.250;37.668;2023-02-28T06:10:49;99670.88;;;-6.46;69.98
45369;BME280;51342;55.250;37.668;2023-02-28T06:13:21;99655.94;;;-6.44;69.83
45369;BME280;51342;55.250;37.668;2023-02-28T06:15:52;99659.22;;;-6.38;69.70
45369;BME280;51342;55.250;37.668;2023-02-28T06:18:24;99655.31;;;-6.29;69.67
45369;BME280;51342;55.250;37.668;2023-02-28T06:20:55;99646.16;;;-6.21;69.61
45369;BME280;51342;55.250;37.668;2023-02-28T06:23:27;99636.09;;;-6.14;69.27
45369;BME280;51342;55.250;37.668;2023-02-28T06:25:58;99638.09;;;-6.04;69.32
45369;BME280;51342;55.250;37.668;2023-02-28T06:28:30;99619.91;;;-6.02;69.21
45369;BME280;51342;55.250;37.668;2023-02-28T06:31:09;99629.66;;;-5.98;69.00
45369;BME280;51342;55.250;37.668;2023-02-28T06:33:42;99609.47;;;-5.91;69.04
45369;BME280;51342;55.250;37.668;2023-02-28T06:36:16;99582.88;;;-5.89;68.65
45369;BME280;51342;55.250;37.668;2023-02-28T06:38:47;99587.19;;;-5.80;68.42
45369;BME280;51342;55.250;37.668;2023-02-28T06:41:26;99586.09;;;-5.75;68.54
45369;BME280;51342;55.250;37.668;2023-02-28T06:43:57;99581.06;;;-5.68;68.37
45369;BME280;51342;55.250;37.668;2023-02-28T06:46:29;99576.56;;;-5.64;68.23
45369;BME280;51342;55.250;37.668;2023-02-28T06:49:00;99574.59;;;-5.59;67.98
45369;BME280;51342;55.250;37.668;2023-02-28T06:51:31;99581.59;;;-5.49;67.94
45369;BME280;51342;55.250;37.668;2023-02-28T06:54:04;99568.44;;;-5.40;67.70
45369;BME280;51342;55.250;37.668;2023-02-28T06:56:35;99567.56;;;-5.33;67.62
45369;BME280;51342;55.250;37.668;2023-02-28T06:59:07;99559.41;;;-5.23;67.39
45369;BME280;51342;55.250;37.668;2023-02-28T07:01:39;99544.63;;;-5.13;67.33
45369;BME280;51342;55.250;37.668;2023-02-28T07:04:10;99540.06;;;-5.01;67.06
45369;BME280;51342;55.250;37.668;2023-02-28T07:06:42;99533.03;;;-4.97;66.87
45369;BME280;51342;55.250;37.668;2023-02-28T07:09:13;99527.22;;;-4.89;66.59
45369;BME280;51342;55.250;37.668;2023-02-28T07:11:45;99519.44;;;-4.83;66.45
45369;BME280;51342;55.250;37.668;2023-02-28T07:14:16;99532.91;;;-4.68;66.16
45369;BME280;51342;55.250;37.668;2023-02-28T07:16:47;99529.06;;;-4.58;65.85
45369;BME280;51342;55.250;37.668;2023-02-28T07:19:19;99518.41;;;-4.48;65.65
45369;BME280;51342;55.250;37.668;2023-02-28T07:21:51;99517.78;;;-4.38;65.42
45369;BME280;51342;55.250;37.668;2023-02-28T07:24:22;99502.56;;;-4.31;65.14
45369;BME280;51342;55.250;37.668;2023-02-28T07:26:56;99498.56;;;-4.22;65.01
45369;BME280;51342;55.250;37.668;2023-02-28T07:29:28;99479.00;;;-4.16;65.02
45369;BME280;51342;55.250;37.668;2023-02-28T07:31:59;99477.66;;;-4.05;64.66
45369;BME280;51342;55.250;37.668;2023-02-28T07:34:31;99473.94;;;-3.93;64.55
45369;BME280;51342;55.250;37.668;2023-02-28T07:37:02;99471.13;;;-3.80;64.19
45369;BME280;51342;55.250;37.668;2023-02-28T07:39:34;99467.81;;;-3.72;63.95
45369;BME280;51342;55.250;37.668;2023-02-28T07:42:06;99447.00;;;-3.69;63.79
45369;BME280;51342;55.250;37.668;2023-02-28T07:44:41;99450.31;;;-3.55;63.56
45369;BME280;51342;55.250;37.668;2023-02-28T07:47:13;99437.41;;;-3.49;63.30
45369;BME280;51342;55.250;37.668;2023-02-28T07:49:45;99426.47;;;-3.41;63.25
45369;BME280;51342;55.250;37.668;2023-02-28T07:52:16;99419.22;;;-3.38;63.15
45369;BME280;51342;55.250;37.668;2023-02-28T07:54:48;99416.06;;;-3.28;62.80
45369;BME280;51342;55.250;37.668;2023-02-28T07:57:19;99404.19;;;-3.21;62.71
45369;BME280;51342;55.250;37.668;2023-02-28T07:59:50;99409.91;;;-3.14;62.66
45369;BME280;51342;55.250;37.668;2023-02-28T08:02:21;99406.88;;;-3.03;62.28
45369;BME280;51342;55.250;37.668;2023-02-28T08:04:54;99410.03;;;-2.97;62.11
45369;BME280;51342;55.250;37.668;2023-02-28T08:07:25;99400.97;;;-2.95;62.33
45369;BME280;51342;55.250;37.668;2023-02-28T08:09:56;99390.00;;;-2.87;61.91
45369;BME280;51342;55.250;37.668;2023-02-28T08:12:28;99403.41;;;-2.88;62.28
45369;BME280;51342;55.250;37.668;2023-02-28T08:14:59;99387.47;;;-2.87;61.97
45369;BME280;51342;55.250;37.668;2023-02-28T08:17:30;99374.09;;;-2.86;62.17
45369;BME280;51342;55.250;37.668;2023-02-28T08:20:02;99368.28;;;-2.85;61.83
45369;BME280;51342;55.250;37.668;2023-02-28T08:22:35;99375.94;;;-2.76;61.72
45369;BME280;51342;55.250;37.668;2023-02-28T08:25:06;99367.94;;;-2.72;61.92
45369;BME280;51342;55.250;37.668;2023-02-28T08:27:38;99367.66;;;-2.67;61.77
45369;BME280;51342;55.250;37.668;2023-02-28T08:30:14;99370.38;;;-2.56;61.61
45369;BME280;51342;55.250;37.668;2023-02-28T08:32:45;99368.31;;;-2.52;61.65
45369;BME280;51342;55.250;37.668;2023-02-28T08:35:17;99361.19;;;-2.47;61.22
45369;BME280;51342;55.250;37.668;2023-02-28T08:37:48;99362.13;;;-2.38;61.25
45369;BME280;51342;55.250;37.668;2023-02-28T08:40:20;99362.00;;;-2.31;61.24
45369;BME280;51342;55.250;37.668;2023-02-28T08:42:51;99365.47;;;-2.22;60.99
45369;BME280;51342;55.250;37.668;2023-02-28T08:45:23;99343.13;;;-2.17;60.88
45369;BME280;51342;55.250;37.668;2023-02-28T08:47:54;99341.66;;;-2.15;60.77
45369;BME280;51342;55.250;37.668;2023-02-28T08:50:26;99342.84;;;-2.11;60.69
45369;BME280;51342;55.250;37.668;2023-02-28T08:52:57;99350.03;;;-1.99;60.54
45369;BME280;51342;55.250;37.668;2023-02-28T08:55:29;99336.78;;;-1.88;60.49
45369;BME280;51342;55.250;37.668;2023-02-28T08:58:00;99326.34;;;-1.82;60.49
45369;BME280;51342;55.250;37.668;2023-02-28T09:00:32;99320.41;;;-1.74;60.24
45369;BME280;51342;55.250;37.668;2023-02-28T09:03:03;99321.47;;;-1.63;60.02
45369;BME280;51342;55.250;37.668;2023-02-28T09:05:35;99311.13;;;-1.65;60.12
45369;BME280;51342;55.250;37.668;2023-02-28T09:08:06;99300.69;;;-1.59;60.07
45369;BME280;51342;55.250;37.668;2023-02-28T09:10:38;99290.72;;;-1.57;60.24
45369;BME280;51342;55.250;37.668;2023-02-28T09:13:09;99284.59;;;-1.51;59.97
45369;BME280;51342;55.250;37.668;2023-02-28T09:15:40;99273.56;;;-1.51;60.22
45369;BME280;51342;55.250;37.668;2023-02-28T09:18:12;99271.03;;;-1.51;59.94
45369;BME280;51342;55.250;37.668;2023-02-28T09:20:44;99252.97;;;-1.54;60.05
45369;BME280;51342;55.250;37.668;2023-02-28T09:23:16;99249.97;;;-1.50;59.99
45369;BME280;51342;55.250;37.668;2023-02-28T09:25:49;99231.50;;;-1.58;59.98
45369;BME280;51342;55.250;37.668;2023-02-28T09:28:21;99238.06;;;-1.51;60.05
45369;BME280;51342;55.250;37.668;2023-02-28T09:30:54;99227.47;;;-1.47;60.29
45369;BME280;51342;55.250;37.668;2023-02-28T09:33:26;99211.94;;;-1.42;60.32
45369;BME280;51342;55.250;37.668;2023-02-28T09:36:02;99216.38;;;-1.39;60.11
45369;BME280;51342;55.250;37.668;2023-02-28T09:38:34;99234.72;;;-1.33;60.41
45369;BME280;51342;55.250;37.668;2023-02-28T09:41:19;99233.81;;;-1.25;60.26
45369;BME280;51342;55.250;37.668;2023-02-28T09:43:56;99260.81;;;-1.17;60.28
45369;BME280;51342;55.250;37.668;2023-02-28T09:46:35;99255.75;;;-1.17;60.13
45369;BME280;51342;55.250;37.668;2023-02-28T09:49:17;99252.19;;;-1.19;60.14
45369;BME280;51342;55.250;37.668;2023-02-28T09:52:02;99231.13;;;-1.26;60.18
45369;BME280;51342;55.250;37.668;2023-02-28T09:54:35;99229.06;;;-1.30;60.24
45369;BME280;51342;55.250;37.668;2023-02-28T09:57:20;99226.22;;;-1.34;60.88
45369;BME280;51342;55.250;37.668;2023-02-28T10:05:47;99213.41;;;-1.35;60.71
45369;BME280;51342;55.250;37.668;2023-02-28T10:11:07;99198.75;;;-1.29;60.61
45369;BME280;51342;55.250;37.668;2023-02-28T10:13:52;99186.34;;;-1.26;60.91
45369;BME280;51342;55.250;37.668;2023-02-28T10:19:38;99183.41;;;-1.39;61.02
45369;BME280;51342;55.250;37.668;2023-02-28T10:22:11;99209.53;;;-1.40;61.07
45369;BME280;51342;55.250;37.668;2023-02-28T10:24:47;99196.25;;;-1.46;61.45
45369;BME280;51342;55.250;37.668;2023-02-28T10:27:21;99183.00;;;-1.52;61.44
45369;BME280;51342;55.250;37.668;2023-02-28T10:29:55;99181.63;;;-1.49;61.53
45369;BME280;51342;55.250;37.668;2023-02-28T10:32:35;99183.13;;;-1.51;61.62
45369;BME280;51342;55.250;37.668;2023-02-28T10:37:44;99158.22;;;-1.55;61.90
45369;BME280;51342;55.250;37.668;2023-02-28T10:43:27;99156.13;;;-1.42;62.06
45369;BME280;51342;55.250;37.668;2023-02-28T10:46:18;99164.88;;;-1.38;62.15
45369;BME280;51342;55.250;37.668;2023-02-28T10:49:01;99160.38;;;-1.32;62.44
45369;BME280;51342;55.250;37.668;2023-02-28T10:51:40;99144.00;;;-1.36;62.51
45369;BME280;51342;55.250;37.668;2023-02-28T10:54:16;99155.81;;;-1.36;62.64
45369;BME280;51342;55.250;37.668;2023-02-28T10:57:18;99138.94;;;-1.44;62.85
45369;BME280;51342;55.250;37.668;2023-02-28T10:59:52;99147.00;;;-1.40;62.83
45369;BME280;51342;55.250;37.668;2023-02-28T11:05:31;99128.66;;;-1.54;63.10
45369;BME280;51342;55.250;37.668;2023-02-28T11:08:16;99113.94;;;-1.58;63.30
45369;BME280;51342;55.250;37.668;2023-02-28T11:10:54;99136.44;;;-1.62;63.49
45369;BME280;51342;55.250;37.668;2023-02-28T11:13:32;99119.00;;;-1.67;63.66
45369;BME280;51342;55.250;37.668;2023-02-28T11:16:07;99119.75;;;-1.68;63.99
45369;BME280;51342;55.250;37.668;2023-02-28T11:18:46;99128.41;;;-1.66;64.08
45369;BME280;51342;55.250;37.668;2023-02-28T11:21:22;99123.06;;;-1.69;64.36
45369;BME280;51342;55.250;37.668;2023-02-28T11:24:04;99124.84;;;-1.68;64.38
45369;BME280;51342;55.250;37.668;2023-02-28T11:26:46;99123.19;;;-1.68;64.38
45369;BME280;51342;55.250;37.668;2023-02-28T11:29:28;99119.47;;;-1.71;64.39
45369;BME280;51342;55.250;37.668;2023-02-28T11:32:21;99121.84;;;-1.73;64.70
45369;BME280;51342;55.250;37.668;2023-02-28T11:35:27;99113.53;;;-1.80;64.87
45369;BME280;51342;55.250;37.668;2023-02-28T11:38:01;99108.59;;;-1.79;65.09
45369;BME280;51342;55.250;37.668;2023-02-28T11:46:34;99087.75;;;-1.85;65.45
45369;BME280;51342;55.250;37.668;2023-02-28T11:49:46;99095.78;;;-1.89;65.54
45369;BME280;51342;55.250;37.668;2023-02-28T11:52:40;99088.31;;;-1.88;65.82
45369;BME280;51342;55.250;37.668;2023-02-28T11:55:32;99086.09;;;-1.93;65.75
45369;BME280;51342;55.250;37.668;2023-02-28T12:12:07;99087.63;;;-2.04;66.69
45369;BME280;51342;55.250;37.668;2023-02-28T12:17:51;99079.59;;;-2.08;66.95
45369;BME280;51342;55.250;37.668;2023-02-28T12:20:41;99088.06;;;-2.08;67.17
45369;BME280;51342;55.250;37.668;2023-02-28T12:26:14;99069.59;;;-2.07;67.22
45369;BME280;51342;55.250;37.668;2023-02-28T12:29:12;99061.84;;;-2.08;67.29
45369;BME280;51342;55.250;37.668;2023-02-28T12:32:16;99076.88;;;-2.01;67.18
45369;BME280;51342;55.250;37.668;2023-02-28T12:34:52;99068.06;;;-1.96;67.54
45369;BME280;51342;55.250;37.668;2023-02-28T12:37:44;99068.06;;;-1.96;67.80
45369;BME280;51342;55.250;37.668;2023-02-28T12:40:21;99055.72;;;-2.02;67.55
45369;BME280;51342;55.250;37.668;2023-02-28T12:42:56;99066.13;;;-1.99;67.83
45369;BME280;51342;55.250;37.668;2023-02-28T12:45:56;99061.97;;;-2.07;67.91
45369;BME280;51342;55.250;37.668;2023-02-28T12:48:39;99054.50;;;-2.05;68.06
45369;BME280;51342;55.250;37.668;2023-02-28T12:51:12;99053.94;;;-2.03;68.11
45369;BME280;51342;55.250;37.668;2023-02-28T12:59:39;99048.28;;;-2.09;68.65
45369;BME280;51342;55.250;37.668;2023-02-28T13:11:02;99030.09;;;-2.14;69.49
45369;BME280;51342;55.250;37.668;2023-02-28T13:13:35;99018.63;;;-2.19;69.55
45369;BME280;51342;55.250;37.668;2023-02-28T13:16:08;99031.88;;;-2.13;70.07
45369;BME280;51342;55.250;37.668;2023-02-28T13:18:43;99028.59;;;-2.11;70.03
45369;BME280;51342;55.250;37.668;2023-02-28T13:21:29;99019.38;;;-2.20;70.24
45369;BME280;51342;55.250;37.668;2023-02-28T13:24:04;99018.91;;;-2.16;70.31
45369;BME280;51342;55.250;37.668;2023-02-28T13:34:39;98982.25;;;-2.19;70.69
45369;BME280;51342;55.250;37.668;2023-02-28T13:40:50;98976.44;;;-2.18;71.00
45369;BME280;51342;55.250;37.668;2023-02-28T13:42:54;98958.56;;;-2.20;71.08
45369;BME280;51342;55.250;37.668;2023-02-28T13:45:30;98956.03;;;-2.20;71.20
45369;BME280;51342;55.250;37.668;2023-02-28T13:48:02;98957.94;;;-2.17;71.29
45369;BME280;51342;55.250;37.668;2023-02-28T13:50:36;98940.84;;;-2.20;71.31
45369;BME280;51342;55.250;37.668;2023-02-28T14:01:26;98937.09;;;-2.23;71.63
45369;BME280;51342;55.250;37.668;2023-02-28T14:06:54;98933.81;;;-2.22;71.83
45369;BME280;51342;55.250;37.668;2023-02-28T14:09:40;98925.50;;;-2.21;71.81
45369;BME280;51342;55.250;37.668;2023-02-28T14:15:48;98926.53;;;-2.28;71.96
45369;BME280;51342;55.250;37.668;2023-02-28T14:18:35;98925.31;;;-2.23;71.86
45369;BME280;51342;55.250;37.668;2023-02-28T14:29:59;98900.75;;;-2.24;72.10
45369;BME280;51342;55.250;37.668;2023-02-28T14:38:21;98891.50;;;-2.23;72.40
45369;BME280;51342;55.250;37.668;2023-02-28T14:40:57;98906.50;;;-2.16;72.73
45369;BME280;51342;55.250;37.668;2023-02-28T14:43:29;98896.13;;;-2.19;72.83
45369;BME280;51342;55.250;37.668;2023-02-28T14:46:02;98894.00;;;-2.15;72.59
45369;BME280;51342;55.250;37.668;2023-02-28T14:48:37;98895.03;;;-2.13;72.74
45369;BME280;51342;55.250;37.668;2023-02-28T14:51:09;98892.81;;;-2.09;72.54
45369;BME280;51342;55.250;37.668;2023-02-28T14:53:40;98891.00;;;-2.10;73.09
45369;BME280;51342;55.250;37.668;2023-02-28T14:56:21;98885.66;;;-2.14;73.02
45369;BME280;51342;55.250;37.668;2023-02-28T14:58:55;98867.47;;;-2.09;73.08
45369;BME280;51342;55.250;37.668;2023-02-28T15:01:26;98866.13;;;-2.15;73.23
45369;BME280;51342;55.250;37.668;2023-02-28T15:04:21;98878.81;;;-2.15;73.20
45369;BME280;51342;55.250;37.668;2023-02-28T15:07:13;98884.78;;;-2.14;73.19
45369;BME280;51342;55.250;37.668;2023-02-28T15:09:45;98879.38;;;-2.08;73.29
45369;BME280;51342;55.250;37.668;2023-02-28T15:12:16;98874.31;;;-2.08;73.48
45369;BME280;51342;55.250;37.668;2023-02-28T15:14:48;98875.31;;;-2.06;73.53
45369;BME280;51342;55.250;37.668;2023-02-28T15:17:23;98877.88;;;-2.06;73.56
45369;BME280;51342;55.250;37.668;2023-02-28T15:19:56;98873.81;;;-2.04;73.41
45369;BME280;51342;55.250;37.668;2023-02-28T15:22:33;98873.69;;;-2.06;73.78
45369;BME280;51342;55.250;37.668;2023-02-28T15:25:13;98862.66;;;-2.06;73.68
45369;BME280;51342;55.250;37.668;2023-02-28T15:27:49;98874.56;;;-2.05;73.95
45369;BME280;51342;55.250;37.668;2023-02-28T15:30:28;98870.41;;;-2.05;73.97
45369;BME280;51342;55.250;37.668;2023-02-28T15:33:19;98869.44;;;-2.24;73.99
45369;BME280;51342;55.250;37.668;2023-02-28T15:35:51;98857.78;;;-2.14;74.11
45369;BME280;51342;55.250;37.668;2023-02-28T15:38:35;98854.78;;;-2.09;74.26
45369;BME280;51342;55.250;37.668;2023-02-28T15:41:28;98858.06;;;-2.10;74.17
45369;BME280;51342;55.250;37.668;2023-02-28T15:47:23;98855.94;;;-2.06;74.20
45369;BME280;51342;55.250;37.668;2023-02-28T15:50:00;98858.59;;;-2.04;74.50
45369;BME280;51342;55.250;37.668;2023-02-28T15:52:38;98864.72;;;-2.02;74.59
45369;BME280;51342;55.250;37.668;2023-02-28T15:57:51;98864.72;;;-2.02;74.83